createdAt,value
2018-09-10T00:00:58.634Z,61.75
2018-09-10T00:01:58.601Z,61.66
2018-09-10T00:02:58.567Z,61.66
2018-09-10T00:03:58.536Z,61.75
2018-09-10T00:04:58.500Z,60.70
2018-09-10T00:05:58.461Z,60.99
2018-09-10T00:06:58.427Z,62.13
2018-09-10T00:07:58.389Z,61.94
2018-09-10T00:08:58.359Z,61.85
2018-09-10T00:09:58.327Z,63.26
2018-09-10T00:10:58.313Z,62.68
2018-09-10T00:11:58.259Z,61.72
2018-09-10T00:12:58.227Z,61.75
2018-09-10T00:13:58.193Z,62.10
2018-09-10T00:14:58.152Z,62.01
2018-09-10T00:15:58.120Z,61.34
2018-09-10T00:16:58.086Z,62.10
2018-09-10T00:17:58.048Z,62.39
2018-09-10T00:18:58.013Z,61.05
2018-09-10T00:19:57.981Z,60.96
2018-09-10T00:20:57.945Z,60.96
2018-09-10T00:21:57.916Z,60.86
2018-09-10T00:22:57.881Z,61.05
2018-09-10T00:23:57.849Z,60.86
2018-09-10T00:24:57.811Z,61.34
2018-09-10T00:25:57.775Z,61.34
2018-09-10T00:26:57.744Z,61.15
2018-09-10T00:27:57.703Z,61.53
2018-09-10T00:28:57.674Z,61.63
2018-09-10T00:29:57.644Z,60.28
2018-09-10T00:30:57.611Z,60.76
2018-09-10T00:31:57.565Z,61.53
2018-09-10T00:32:57.533Z,61.43
2018-09-10T00:33:57.504Z,60.67
2018-09-10T00:34:57.476Z,60.67
2018-09-10T00:35:57.434Z,60.76
2018-09-10T00:36:57.399Z,62.01
2018-09-10T00:37:57.364Z,62.10
2018-09-10T00:38:57.326Z,61.24
2018-09-10T00:39:57.290Z,60.67
2018-09-10T00:40:57.261Z,60.28
2018-09-10T00:41:57.234Z,61.53
2018-09-10T00:42:57.196Z,61.82
2018-09-10T00:43:57.161Z,60.76
2018-09-10T00:44:57.122Z,61.05
2018-09-10T00:45:57.089Z,61.15
2018-09-10T00:46:57.049Z,61.24
2018-09-10T00:47:57.024Z,64.69
2018-09-10T00:48:56.984Z,64.40
2018-09-10T00:49:56.953Z,63.76
2018-09-10T00:50:56.918Z,63.29
2018-09-10T00:51:56.882Z,64.15
2018-09-10T00:52:56.844Z,63.48
2018-09-10T00:53:56.815Z,64.05
2018-09-10T00:54:56.783Z,64.05
2018-09-10T00:55:56.749Z,64.25
2018-09-10T00:56:56.714Z,64.43
2018-09-10T00:57:56.679Z,64.72
2018-09-10T00:58:56.636Z,64.25
2018-09-10T00:59:56.607Z,63.29
2018-09-10T01:00:58.228Z,63.48
2018-09-10T01:01:56.543Z,64.15
2018-09-10T01:02:56.512Z,63.29
2018-09-10T01:03:56.467Z,64.43
2018-09-10T01:04:56.431Z,63.76
2018-09-10T01:05:56.400Z,63.00
2018-09-10T01:06:56.372Z,62.52
2018-09-10T01:07:56.333Z,63.19
2018-09-10T01:08:56.303Z,63.29
2018-09-10T01:09:56.260Z,62.71
2018-09-10T01:10:56.225Z,62.62
2018-09-10T01:11:56.197Z,62.62
2018-09-10T01:12:56.160Z,61.91
2018-09-10T01:13:56.127Z,63.29
2018-09-10T01:14:56.099Z,63.19
2018-09-10T01:15:56.062Z,62.49
2018-09-10T01:16:56.031Z,62.71
2018-09-10T01:17:55.986Z,63.00
2018-09-10T01:18:55.951Z,63.57
2018-09-10T01:19:55.921Z,64.15
2018-09-10T01:20:55.892Z,63.76
2018-09-10T01:21:55.848Z,64.63
2018-09-10T01:22:55.813Z,64.25
2018-09-10T01:23:55.777Z,63.76
2018-09-10T01:24:55.751Z,63.19
2018-09-10T01:25:55.715Z,63.38
2018-09-10T01:26:55.681Z,63.29
2018-09-10T01:27:55.651Z,63.29
2018-09-10T01:28:55.610Z,64.53
2018-09-10T01:29:55.619Z,64.05
2018-09-10T01:30:55.541Z,64.34
2018-09-10T01:31:55.503Z,63.48
2018-09-10T01:32:55.471Z,63.57
2018-09-10T01:33:55.437Z,63.48
2018-09-10T01:34:55.435Z,64.72
2018-09-10T01:35:55.364Z,64.25
2018-09-10T01:36:55.332Z,64.15
2018-09-10T01:37:55.304Z,65.20
2018-09-10T01:38:55.268Z,64.63
2018-09-10T01:39:55.260Z,65.20
2018-09-10T01:40:55.197Z,65.68
2018-09-10T01:41:55.162Z,64.15
2018-09-10T01:42:55.127Z,64.34
2018-09-10T01:43:55.093Z,65.59
2018-09-10T01:44:55.058Z,65.20
2018-09-10T01:45:55.030Z,66.16
2018-09-10T01:46:54.997Z,65.68
2018-09-10T01:47:54.965Z,64.82
2018-09-10T01:48:54.922Z,64.63
2018-09-10T01:49:54.887Z,65.39
2018-09-10T01:50:54.853Z,65.39
2018-09-10T01:51:54.826Z,66.16
2018-09-10T01:52:54.788Z,66.06
2018-09-10T01:53:54.748Z,65.68
2018-09-10T01:54:54.718Z,65.68
2018-09-10T01:55:54.676Z,66.16
2018-09-10T01:56:54.647Z,66.55
2018-09-10T01:57:54.614Z,66.26
2018-09-10T01:58:54.581Z,66.83
2018-09-10T01:59:54.550Z,67.22
2018-09-10T02:00:54.517Z,67.79
2018-09-10T02:01:54.478Z,66.67
2018-09-10T02:02:54.448Z,67.16
2018-09-10T02:03:54.413Z,68.02
2018-09-10T02:04:54.371Z,67.63
2018-09-10T02:05:54.341Z,66.86
2018-09-10T02:06:54.312Z,66.86
2018-09-10T02:07:54.272Z,67.32
2018-09-10T02:08:54.234Z,67.54
2018-09-10T02:09:54.200Z,67.69
2018-09-10T02:10:54.169Z,67.32
2018-09-10T02:11:54.139Z,67.16
2018-09-10T02:12:54.099Z,67.35
2018-09-10T02:13:54.064Z,67.63
2018-09-10T02:14:54.028Z,67.50
2018-09-10T02:15:53.991Z,68.02
2018-09-10T02:16:54.024Z,68.40
2018-09-10T02:17:53.938Z,68.02
2018-09-10T02:18:53.904Z,67.83
2018-09-10T02:19:53.861Z,68.21
2018-09-10T02:20:53.824Z,69.17
2018-09-10T02:21:53.797Z,68.79
2018-09-10T02:22:53.753Z,68.88
2018-09-10T02:23:53.724Z,68.59
2018-09-10T02:24:53.689Z,68.50
2018-09-10T02:25:53.654Z,69.17
2018-09-10T02:26:53.615Z,68.98
2018-09-10T02:27:53.647Z,68.59
2018-09-10T02:28:53.549Z,68.59
2018-09-10T02:29:53.522Z,68.79
2018-09-10T02:30:53.486Z,68.88
2018-09-10T02:31:53.454Z,68.69
2018-09-10T02:32:53.415Z,68.59
2018-09-10T02:33:53.388Z,69.07
2018-09-10T02:34:53.349Z,69.74
2018-09-10T02:35:53.311Z,69.74
2018-09-10T02:36:53.280Z,69.26
2018-09-10T02:37:53.244Z,69.26
2018-09-10T02:38:53.217Z,69.46
2018-09-10T02:39:53.180Z,69.65
2018-09-10T02:40:53.140Z,69.36
2018-09-10T02:41:53.112Z,69.07
2018-09-10T02:42:53.079Z,69.26
2018-09-10T02:43:53.042Z,69.56
2018-09-10T02:44:53.015Z,69.36
2018-09-10T02:45:52.971Z,69.46
2018-09-10T02:46:52.933Z,69.56
2018-09-10T02:47:52.904Z,69.65
2018-09-10T02:48:52.867Z,69.56
2018-09-10T02:49:52.835Z,70.03
2018-09-10T02:50:52.806Z,69.26
2018-09-10T02:51:52.770Z,69.74
2018-09-10T02:52:52.737Z,69.56
2018-09-10T02:53:52.699Z,69.07
2018-09-10T02:54:52.661Z,69.36
2018-09-10T02:55:52.632Z,69.65
2018-09-10T02:56:52.595Z,69.26
2018-09-10T02:57:52.558Z,69.65
2018-09-10T02:58:52.524Z,69.46
2018-09-10T02:59:52.489Z,69.46
2018-09-10T03:00:52.456Z,69.26
2018-09-10T03:01:52.423Z,69.84
2018-09-10T03:02:52.391Z,69.36
2018-09-10T03:03:52.356Z,69.56
2018-09-10T03:04:52.320Z,69.36
2018-09-10T03:05:52.288Z,69.56
2018-09-10T03:06:52.252Z,68.59
2018-09-10T03:07:52.212Z,69.46
2018-09-10T03:08:52.186Z,69.36
2018-09-10T03:09:52.158Z,69.56
2018-09-10T03:10:52.119Z,69.36
2018-09-10T03:11:52.076Z,69.36
2018-09-10T03:12:52.043Z,69.17
2018-09-10T03:13:52.012Z,69.46
2018-09-10T03:14:51.980Z,69.17
2018-09-10T03:15:51.948Z,68.79
2018-09-10T03:16:51.911Z,68.50
2018-09-10T03:17:51.919Z,68.98
2018-09-10T03:18:51.834Z,68.56
2018-09-10T03:19:51.802Z,68.66
2018-09-10T03:20:51.768Z,68.56
2018-09-10T03:21:51.735Z,69.33
2018-09-10T03:22:51.708Z,68.56
2018-09-10T03:23:51.671Z,68.85
2018-09-10T03:24:51.637Z,68.66
2018-09-10T03:25:51.595Z,68.56
2018-09-10T03:26:51.561Z,68.56
2018-09-10T03:27:51.535Z,69.13
2018-09-10T03:28:51.494Z,68.37
2018-09-10T03:29:51.462Z,69.04
2018-09-10T03:30:51.421Z,69.04
2018-09-10T03:31:51.385Z,68.95
2018-09-10T03:32:51.354Z,68.56
2018-09-10T03:33:51.322Z,68.95
2018-09-10T03:34:51.290Z,69.04
2018-09-10T03:35:51.260Z,69.52
2018-09-10T03:36:51.220Z,69.23
2018-09-10T03:37:51.181Z,69.33
2018-09-10T03:38:51.151Z,69.42
2018-09-10T03:39:51.120Z,69.52
2018-09-10T03:40:51.078Z,69.52
2018-09-10T03:41:51.047Z,69.52
2018-09-10T03:42:51.014Z,69.33
2018-09-10T03:43:50.972Z,69.23
2018-09-10T03:44:50.940Z,69.42
2018-09-10T03:45:50.909Z,69.13
2018-09-10T03:46:50.879Z,69.23
2018-09-10T03:47:50.842Z,69.52
2018-09-10T03:48:50.806Z,69.13
2018-09-10T03:49:50.771Z,69.42
2018-09-10T03:50:50.736Z,69.13
2018-09-10T03:51:50.702Z,69.90
2018-09-10T03:52:50.670Z,69.81
2018-09-10T03:53:50.635Z,70.03
2018-09-10T04:06:50.172Z,68.46
2018-09-10T04:07:50.123Z,67.89
2018-09-10T04:08:50.046Z,67.47
2018-09-10T04:09:50.139Z,66.61
2018-09-10T04:10:49.977Z,66.71
2018-09-10T04:11:49.935Z,67.18
2018-09-10T04:12:49.896Z,66.71
2018-09-10T04:13:49.862Z,66.80
2018-09-10T04:14:49.819Z,67.28
2018-09-10T04:15:49.788Z,67.28
2018-09-10T04:16:49.750Z,67.76
2018-09-10T04:17:49.732Z,67.85
2018-09-10T04:18:49.678Z,67.85
2018-09-10T04:19:49.639Z,67.60
2018-09-10T04:20:49.604Z,66.89
2018-09-10T04:21:49.568Z,66.03
2018-09-10T04:22:49.542Z,65.94
2018-09-10T04:23:49.500Z,65.94
2018-09-10T04:24:49.471Z,65.84
2018-09-10T04:25:49.471Z,66.22
2018-09-10T04:26:49.392Z,66.71
2018-09-10T04:27:49.357Z,66.80
2018-09-10T04:28:49.323Z,67.09
2018-09-10T04:29:49.287Z,66.93
2018-09-10T04:30:49.254Z,67.79
2018-09-10T04:31:49.218Z,68.08
2018-09-10T04:32:49.182Z,67.69
2018-09-10T04:33:49.147Z,67.99
2018-09-10T04:34:49.155Z,67.89
2018-09-10T04:35:49.086Z,68.56
2018-09-10T04:36:49.047Z,67.41
2018-09-10T04:37:49.013Z,68.56
2018-09-10T04:38:48.970Z,68.75
2018-09-10T04:39:48.936Z,68.46
2018-09-10T04:40:48.902Z,69.42
2018-09-10T04:41:48.867Z,69.13
2018-09-10T04:42:48.836Z,68.56
2018-09-10T04:43:48.802Z,69.13
2018-09-10T04:44:48.767Z,68.59
2018-09-10T04:45:48.732Z,68.50
2018-09-10T04:46:48.693Z,68.56
2018-09-10T04:47:48.662Z,68.69
2018-09-10T04:48:48.632Z,68.59
2018-09-10T04:49:48.622Z,68.56
2018-09-10T04:50:48.554Z,67.69
2018-09-10T04:51:48.520Z,67.69
2018-09-10T04:52:48.557Z,67.60
2018-09-10T04:53:48.450Z,67.12
2018-09-10T04:54:48.419Z,67.02
2018-09-10T04:55:48.390Z,66.83
2018-09-10T04:56:48.365Z,67.50
2018-09-10T04:57:48.318Z,67.60
2018-09-10T04:58:48.281Z,67.69
2018-09-10T04:59:48.245Z,67.99
2018-09-10T05:00:48.217Z,67.32
2018-09-10T05:01:48.179Z,66.55
2018-09-10T05:02:48.148Z,66.83
2018-09-10T05:03:48.112Z,66.74
2018-09-10T05:04:48.072Z,66.35
2018-09-10T05:05:48.035Z,65.68
2018-09-10T05:06:48.020Z,65.20
2018-09-10T05:07:47.972Z,64.72
2018-09-10T05:08:47.938Z,64.53
2018-09-10T05:09:47.950Z,64.34
2018-09-10T05:10:47.866Z,64.34
2018-09-10T05:11:47.832Z,64.02
2018-09-10T05:12:47.801Z,63.54
2018-09-10T05:13:47.760Z,64.31
2018-09-10T05:14:47.731Z,63.35
2018-09-10T05:15:47.698Z,63.26
2018-09-10T05:16:47.664Z,63.26
2018-09-10T05:17:47.635Z,63.35
2018-09-10T05:18:47.591Z,63.83
2018-09-10T05:19:47.557Z,64.69
2018-09-10T05:20:47.526Z,64.40
2018-09-10T05:21:47.543Z,64.89
2018-09-10T05:22:47.451Z,64.82
2018-09-10T05:23:47.419Z,64.31
2018-09-10T05:24:47.386Z,64.50
2018-09-10T05:25:47.348Z,64.22
2018-09-10T05:26:47.323Z,63.57
2018-09-10T05:27:47.286Z,64.40
2018-09-10T05:28:47.248Z,63.64
2018-09-10T05:29:47.216Z,63.96
2018-09-10T05:30:47.178Z,64.31
2018-09-10T05:31:47.144Z,63.38
2018-09-10T05:32:47.112Z,63.29
2018-09-10T05:33:47.072Z,63.29
2018-09-10T05:34:47.061Z,63.38
2018-09-10T05:35:47.008Z,63.29
2018-09-10T05:36:46.976Z,63.67
2018-09-10T05:37:46.937Z,64.72
2018-09-10T05:38:46.912Z,63.48
2018-09-10T05:39:46.871Z,63.19
2018-09-10T05:40:46.841Z,62.71
2018-09-10T05:41:46.883Z,63.19
2018-09-10T05:42:46.765Z,63.48
2018-09-10T05:43:46.734Z,63.76
2018-09-10T05:44:46.705Z,62.04
2018-09-10T05:45:46.666Z,62.71
2018-09-10T05:46:46.638Z,62.62
2018-09-10T05:47:46.604Z,62.04
2018-09-10T05:48:46.573Z,61.94
2018-09-10T05:49:46.533Z,62.23
2018-09-10T05:50:46.501Z,62.52
2018-09-10T05:51:46.460Z,62.52
2018-09-10T05:52:46.427Z,62.71
2018-09-10T05:53:46.405Z,62.13
2018-09-10T05:54:46.360Z,61.94
2018-09-10T05:55:46.318Z,62.13
2018-09-10T05:56:46.288Z,62.04
2018-09-10T05:57:46.253Z,61.37
2018-09-10T05:58:46.224Z,61.94
2018-09-10T05:59:46.193Z,62.81
2018-09-10T06:00:46.157Z,63.19
2018-09-10T06:01:46.119Z,63.38
2018-09-10T06:02:46.082Z,64.53
2018-09-10T06:03:46.047Z,65.23
2018-09-10T06:04:46.018Z,65.23
2018-09-10T06:05:45.989Z,64.56
2018-09-10T06:06:45.957Z,64.85
2018-09-10T06:07:45.916Z,64.18
2018-09-10T06:08:45.936Z,64.56
2018-09-10T06:09:45.842Z,65.62
2018-09-10T06:10:45.817Z,65.23
2018-09-10T06:11:45.778Z,65.39
2018-09-10T06:12:45.745Z,64.34
2018-09-10T06:13:45.710Z,63.42
2018-09-10T06:14:45.672Z,63.42
2018-09-10T06:15:45.635Z,64.28
2018-09-10T06:16:45.644Z,63.42
2018-09-10T06:17:45.571Z,64.28
2018-09-10T06:18:45.538Z,63.42
2018-09-10T06:19:45.506Z,64.25
2018-09-10T06:20:45.471Z,64.28
2018-09-10T06:21:45.440Z,64.37
2018-09-10T06:22:45.401Z,64.47
2018-09-10T06:23:45.366Z,65.14
2018-09-10T06:24:45.340Z,64.47
2018-09-10T06:25:45.308Z,64.66
2018-09-10T06:26:45.268Z,64.56
2018-09-10T06:27:45.229Z,64.76
2018-09-10T06:28:45.196Z,64.18
2018-09-10T06:29:45.173Z,62.93
2018-09-10T06:30:45.129Z,62.07
2018-09-10T06:31:45.095Z,61.49
2018-09-10T06:32:45.062Z,61.30
2018-09-10T06:33:45.033Z,60.53
2018-09-10T06:34:44.991Z,59.67
2018-09-10T06:35:44.962Z,59.64
2018-09-10T06:36:44.922Z,59.06
2018-09-10T06:37:44.890Z,59.06
2018-09-10T06:38:44.862Z,58.49
2018-09-10T06:39:44.825Z,58.71
2018-09-10T06:40:44.787Z,58.78
2018-09-10T06:41:44.751Z,59.29
2018-09-10T06:42:44.721Z,60.44
2018-09-10T06:43:44.695Z,60.92
2018-09-10T06:44:44.656Z,61.02
2018-09-10T06:45:44.625Z,61.30
2018-09-10T06:46:44.583Z,61.59
2018-09-10T06:47:44.583Z,63.12
2018-09-10T06:48:44.513Z,62.65
2018-09-10T06:49:44.480Z,62.45
2018-09-10T06:50:44.449Z,60.44
2018-09-10T06:51:44.417Z,57.75
2018-09-10T06:52:44.382Z,57.95
2018-09-10T06:53:44.346Z,58.07
2018-09-10T06:54:44.310Z,57.21
2018-09-10T06:55:44.278Z,57.78
2018-09-10T06:56:52.896Z,58.17
2018-09-10T06:58:37.632Z,59.70
2018-09-10T06:59:37.543Z,59.51
2018-09-10T07:00:37.505Z,60.08
2018-09-10T07:01:37.474Z,62.01
2018-09-10T07:02:37.440Z,62.01
2018-09-10T07:03:37.408Z,64.31
2018-09-10T07:04:37.376Z,63.25
2018-09-10T07:05:37.343Z,63.16
2018-09-10T07:06:37.303Z,63.73
2018-09-10T07:07:37.284Z,64.50
2018-09-10T07:08:37.239Z,65.30
2018-09-10T07:09:37.213Z,65.46
2018-09-10T07:10:37.178Z,65.69
2018-09-10T07:11:37.138Z,65.78
2018-09-10T07:12:37.115Z,65.78
2018-09-10T07:13:37.071Z,66.26
2018-09-10T07:14:37.059Z,66.36
2018-09-10T07:15:37.003Z,66.36
2018-09-10T07:16:36.971Z,64.72
2018-09-10T07:17:36.939Z,61.84
2018-09-10T07:18:36.974Z,61.17
2018-09-10T07:19:36.869Z,60.50
2018-09-10T07:20:36.835Z,61.27
2018-09-10T07:21:36.800Z,63.12
2018-09-10T07:22:36.777Z,63.70
2018-09-10T07:23:36.739Z,63.79
2018-09-10T07:24:36.702Z,63.22
2018-09-10T07:25:36.663Z,64.76
2018-09-10T07:26:36.634Z,65.14
2018-09-10T07:27:36.604Z,66.20
2018-09-10T07:28:36.569Z,65.33
2018-09-10T07:29:36.546Z,66.00
2018-09-10T07:30:36.504Z,66.87
2018-09-10T07:31:36.468Z,67.07
2018-09-10T07:32:36.438Z,67.64
2018-09-10T07:33:36.399Z,68.21
2018-09-10T07:34:36.428Z,67.93
2018-09-10T07:35:36.336Z,68.12
2018-09-10T07:36:36.305Z,68.12
2018-09-10T07:37:36.273Z,68.12
2018-09-10T07:38:36.236Z,67.83
2018-09-10T07:39:36.206Z,68.02
2018-09-10T07:40:36.174Z,67.93
2018-09-10T07:41:36.144Z,68.25
2018-09-10T07:42:36.112Z,68.21
2018-09-10T07:43:36.092Z,67.93
2018-09-10T07:44:36.041Z,68.54
2018-09-10T07:45:36.007Z,68.83
2018-09-10T07:46:35.974Z,68.35
2018-09-10T07:47:35.941Z,68.54
2018-09-10T07:48:35.909Z,69.40
2018-09-10T07:49:35.879Z,69.89
2018-09-10T07:50:35.847Z,69.21
2018-09-10T07:51:35.814Z,69.50
2018-09-10T07:52:35.781Z,70.46
2018-09-10T07:53:35.740Z,70.27
2018-09-10T07:54:35.746Z,69.92
2018-09-10T07:55:35.681Z,69.63
2018-09-10T07:56:35.652Z,70.59
2018-09-10T07:57:35.620Z,70.21
2018-09-10T07:58:35.581Z,70.30
2018-09-10T07:59:35.551Z,70.59
2018-09-10T08:00:35.522Z,70.21
2018-09-10T08:01:35.487Z,70.59
2018-09-10T08:02:35.459Z,70.50
2018-09-10T08:03:35.421Z,70.59
2018-09-10T08:04:35.388Z,71.36
2018-09-10T08:05:35.352Z,70.98
2018-09-10T08:06:35.322Z,72.32
2018-09-10T08:07:35.284Z,70.78
2018-09-10T08:08:35.257Z,70.78
2018-09-10T08:09:35.259Z,70.43
2018-09-10T08:10:35.194Z,70.82
2018-09-10T08:11:35.154Z,70.82
2018-09-10T08:12:35.133Z,71.59
2018-09-10T08:13:35.095Z,71.30
2018-09-10T08:14:35.062Z,71.78
2018-09-10T08:15:35.031Z,70.92
2018-09-10T08:16:35.053Z,70.92
2018-09-10T08:17:34.965Z,72.07
2018-09-10T08:18:34.933Z,70.86
2018-09-10T08:19:34.895Z,71.34
2018-09-10T08:20:34.871Z,71.34
2018-09-10T08:21:34.841Z,71.91
2018-09-10T08:22:34.805Z,71.34
2018-09-10T08:23:34.779Z,71.34
2018-09-10T08:24:34.809Z,71.62
2018-09-10T08:25:34.707Z,71.53
2018-09-10T08:26:34.676Z,71.34
2018-09-10T08:27:34.645Z,71.97
2018-09-10T08:28:34.607Z,71.97
2018-09-10T08:29:34.576Z,72.07
2018-09-10T08:30:34.622Z,72.39
2018-09-10T08:31:34.512Z,72.11
2018-09-10T08:32:34.485Z,72.11
2018-09-10T08:33:34.449Z,72.39
2018-09-10T08:34:34.418Z,72.49
2018-09-10T08:35:34.392Z,72.88
2018-09-10T08:36:34.352Z,72.49
2018-09-10T08:37:34.320Z,72.68
2018-09-10T08:38:34.297Z,72.30
2018-09-10T08:39:34.256Z,72.49
2018-09-10T08:40:34.231Z,72.97
2018-09-10T08:41:34.195Z,72.88
2018-09-10T08:42:34.173Z,72.30
2018-09-10T08:43:34.129Z,72.59
2018-09-10T08:44:34.105Z,72.88
2018-09-10T08:45:34.067Z,72.88
2018-09-10T08:46:34.048Z,72.30
2018-09-10T08:47:34.008Z,72.59
2018-09-10T08:48:33.972Z,72.68
2018-09-10T08:49:33.937Z,72.78
2018-09-10T08:50:33.908Z,72.49
2018-09-10T08:51:33.871Z,72.49
2018-09-10T08:52:33.847Z,72.39
2018-09-10T08:53:33.811Z,72.68
2018-09-10T08:54:34.042Z,72.68
2018-09-10T08:55:33.781Z,72.68
2018-09-10T08:56:33.715Z,72.49
2018-09-10T08:57:33.683Z,72.49
2018-09-10T08:58:33.655Z,73.36
2018-09-10T08:59:33.623Z,72.53
2018-09-10T09:00:33.607Z,72.39
2018-09-10T09:01:33.560Z,72.81
2018-09-10T09:02:33.526Z,72.72
2018-09-10T09:03:33.491Z,72.91
2018-09-10T09:04:33.465Z,72.47
2018-09-10T09:05:33.438Z,72.47
2018-09-10T09:06:33.399Z,72.56
2018-09-10T09:07:33.370Z,72.37
2018-09-10T09:08:33.334Z,72.47
2018-09-10T09:09:33.301Z,71.70
2018-09-10T09:10:33.271Z,72.66
2018-09-10T09:11:33.240Z,72.47
2018-09-10T09:12:33.213Z,72.08
2018-09-10T09:13:33.190Z,72.56
2018-09-10T09:14:33.146Z,72.47
2018-09-10T09:15:33.115Z,72.50
2018-09-10T09:16:33.194Z,71.83
2018-09-10T09:17:33.120Z,71.64
2018-09-10T09:18:33.019Z,71.73
2018-09-10T09:19:32.992Z,71.44
2018-09-10T09:20:33.101Z,71.73
2018-09-10T09:21:32.931Z,71.54
2018-09-10T09:22:32.892Z,71.44
2018-09-10T09:23:32.923Z,71.44
2018-09-10T09:24:32.832Z,71.44
2018-09-10T09:25:32.803Z,72.21
2018-09-10T09:26:32.769Z,72.34
2018-09-10T09:27:32.744Z,71.92
2018-09-10T09:28:32.702Z,71.38
2018-09-10T09:29:32.708Z,71.48
2018-09-10T09:30:32.642Z,71.28
2018-09-10T09:31:32.617Z,71.64
2018-09-10T09:32:32.582Z,71.96
2018-09-10T09:33:32.567Z,71.25
2018-09-10T09:34:32.518Z,71.25
2018-09-10T09:35:32.489Z,72.12
2018-09-10T09:36:32.457Z,71.92
2018-09-10T09:37:32.423Z,72.50
2018-09-10T09:38:32.393Z,72.50
2018-09-10T09:39:32.365Z,72.31
2018-09-10T09:40:32.326Z,72.21
2018-09-10T09:41:32.301Z,72.50
2018-09-10T09:42:32.266Z,72.69
2018-09-10T09:43:32.280Z,72.50
2018-09-10T09:44:32.209Z,72.41
2018-09-10T09:45:32.176Z,72.50
2018-09-10T09:46:32.142Z,72.02
2018-09-10T09:47:32.118Z,72.31
2018-09-10T09:48:32.086Z,72.41
2018-09-10T09:49:32.075Z,72.31
2018-09-10T09:50:32.022Z,72.79
2018-09-10T09:51:31.989Z,72.12
2018-09-10T09:52:31.954Z,72.41
2018-09-10T09:53:31.924Z,72.50
2018-09-10T09:54:31.892Z,72.50
2018-09-10T09:55:31.860Z,72.60
2018-09-10T09:56:31.881Z,72.31
2018-09-10T09:57:31.808Z,72.60
2018-09-10T09:58:31.772Z,72.41
2018-09-10T09:59:31.740Z,73.27
2018-09-10T10:00:31.704Z,72.79
2018-09-10T10:01:31.673Z,72.60
2018-09-10T10:02:31.647Z,72.69
2018-09-10T10:03:31.618Z,73.18
2018-09-10T10:04:31.596Z,72.79
2018-09-10T10:05:31.565Z,72.25
2018-09-10T10:06:31.532Z,72.44
2018-09-10T10:20:51.482Z,72.34
2018-09-10T10:21:51.409Z,72.58
2018-09-10T10:22:51.368Z,72.73
2018-09-10T10:23:51.374Z,72.58
2018-09-10T10:24:51.303Z,72.09
2018-09-10T10:25:51.281Z,72.38
2018-09-10T10:26:51.226Z,72.48
2018-09-10T10:27:51.196Z,72.48
2018-09-10T10:28:51.165Z,72.48
2018-09-10T10:29:51.120Z,72.28
2018-09-10T10:30:51.087Z,71.80
2018-09-10T10:31:51.058Z,72.28
2018-09-10T10:32:51.046Z,72.19
2018-09-10T10:33:50.996Z,71.70
2018-09-10T10:34:50.976Z,72.09
2018-09-10T10:35:50.930Z,71.90
2018-09-10T10:36:50.897Z,71.80
2018-09-10T10:37:50.862Z,71.51
2018-09-10T10:38:50.884Z,72.00
2018-09-10T10:39:50.817Z,72.00
2018-09-10T10:40:50.787Z,71.36
2018-09-10T10:41:50.740Z,71.84
2018-09-10T10:42:50.711Z,71.84
2018-09-10T10:43:50.702Z,71.36
2018-09-10T10:44:50.646Z,70.78
2018-09-10T10:45:50.618Z,70.58
2018-09-10T10:46:50.680Z,70.48
2018-09-10T10:47:50.557Z,71.55
2018-09-10T10:48:50.520Z,70.87
2018-09-10T10:49:50.486Z,70.68
2018-09-10T10:50:50.456Z,70.39
2018-09-10T10:51:50.428Z,71.36
2018-09-10T10:52:50.398Z,70.68
2018-09-10T10:53:50.397Z,71.55
2018-09-10T10:54:50.333Z,71.16
2018-09-10T10:55:50.303Z,71.55
2018-09-10T10:56:50.276Z,71.26
2018-09-10T10:57:50.245Z,71.00
2018-09-10T10:58:50.214Z,70.68
2018-09-10T10:59:50.184Z,70.72
2018-09-10T11:00:50.192Z,70.62
2018-09-10T11:01:50.189Z,69.74
2018-09-10T11:02:50.085Z,69.74
2018-09-10T11:03:50.056Z,69.46
2018-09-10T11:04:50.029Z,69.26
2018-09-10T11:05:50.007Z,69.84
2018-09-10T11:06:49.967Z,69.46
2018-09-10T11:07:49.943Z,68.98
2018-09-10T11:08:49.907Z,69.07
2018-09-10T11:09:49.874Z,69.07
2018-09-10T11:10:49.848Z,69.74
2018-09-10T11:11:49.817Z,69.36
2018-09-10T11:12:49.781Z,69.56
2018-09-10T11:13:49.754Z,69.17
2018-09-10T11:14:49.734Z,68.91
2018-09-10T11:15:49.689Z,69.59
2018-09-10T11:16:49.665Z,69.10
2018-09-10T11:17:49.656Z,69.40
2018-09-10T11:18:49.605Z,69.20
2018-09-10T11:19:49.576Z,69.20
2018-09-10T11:20:49.540Z,70.07
2018-09-10T11:21:49.505Z,69.40
2018-09-10T11:22:49.475Z,70.17
2018-09-10T11:23:49.449Z,69.59
2018-09-10T11:24:49.419Z,69.30
2018-09-10T11:25:49.392Z,69.88
2018-09-10T11:26:49.357Z,69.74
2018-09-10T11:27:49.385Z,69.36
2018-09-10T11:28:49.298Z,69.65
2018-09-10T11:29:49.273Z,70.32
2018-09-10T11:30:49.241Z,70.46
2018-09-10T11:31:49.210Z,69.98
2018-09-10T11:32:49.177Z,69.68
2018-09-10T11:33:49.143Z,69.01
2018-09-10T11:34:49.115Z,69.84
2018-09-10T11:35:49.086Z,69.84
2018-09-10T11:36:49.063Z,70.52
2018-09-10T11:37:49.184Z,69.26
2018-09-10T11:38:48.997Z,69.56
2018-09-10T11:39:48.969Z,69.36
2018-09-10T11:40:48.935Z,70.90
2018-09-10T11:41:48.901Z,70.62
2018-09-10T11:42:48.876Z,70.32
2018-09-10T11:43:48.844Z,70.56
2018-09-10T11:44:48.813Z,69.88
2018-09-10T11:45:48.788Z,69.68
2018-09-10T11:46:48.750Z,70.26
2018-09-10T11:47:48.727Z,69.01
2018-09-10T11:48:48.698Z,69.59
2018-09-10T11:49:48.676Z,70.20
2018-09-10T11:50:48.635Z,69.62
2018-09-10T11:51:48.791Z,69.24
2018-09-10T11:52:48.577Z,68.56
2018-09-10T11:53:48.542Z,68.66
2018-09-10T11:54:48.767Z,68.85
2018-09-10T11:55:48.590Z,69.43
2018-09-10T11:56:48.457Z,67.69
2018-09-10T11:57:48.426Z,68.30
2018-09-10T11:58:48.396Z,68.88
2018-09-10T11:59:48.364Z,69.37
2018-09-10T12:00:48.336Z,68.79
2018-09-10T12:01:48.336Z,68.11
2018-09-10T12:02:48.280Z,68.40
2018-09-10T12:03:48.247Z,68.21
2018-09-10T12:04:48.216Z,68.69
2018-09-10T12:05:48.182Z,67.53
2018-09-10T12:06:48.151Z,67.46
2018-09-10T12:07:48.126Z,67.46
2018-09-10T12:08:48.108Z,68.43
2018-09-10T12:09:48.072Z,66.69
2018-09-10T12:10:48.046Z,66.34
2018-09-10T12:11:48.011Z,67.79
2018-09-10T12:12:47.976Z,67.60
2018-09-10T12:13:47.945Z,67.30
2018-09-10T12:14:47.925Z,65.95
2018-09-10T12:15:47.893Z,63.89
2018-09-10T12:16:47.868Z,65.24
2018-09-10T12:17:47.828Z,64.07
2018-09-10T12:18:47.796Z,63.01
2018-09-10T12:19:47.769Z,63.79
2018-09-10T12:20:47.744Z,63.37
2018-09-10T12:21:47.715Z,63.27
2018-09-10T12:22:47.688Z,64.24
2018-09-10T12:23:47.653Z,64.34
2018-09-10T12:24:47.627Z,64.43
2018-09-10T12:25:47.590Z,64.34
2018-09-10T12:26:47.564Z,64.43
2018-09-10T12:27:47.534Z,64.43
2018-09-10T12:28:47.534Z,64.72
2018-09-10T12:29:47.491Z,64.04
2018-09-10T12:30:47.450Z,64.34
2018-09-10T12:31:47.417Z,63.89
2018-09-10T12:32:47.395Z,63.21
2018-09-10T12:33:47.384Z,64.17
2018-09-10T12:34:47.340Z,63.11
2018-09-10T12:35:47.318Z,62.53
2018-09-10T12:36:47.276Z,63.59
2018-09-10T12:37:47.252Z,63.11
2018-09-10T12:38:47.212Z,64.27
2018-09-10T12:39:47.321Z,64.17
2018-09-10T12:40:47.157Z,63.69
2018-09-10T12:41:47.165Z,62.92
2018-09-10T12:42:47.117Z,63.01
2018-09-10T12:43:47.073Z,63.21
2018-09-10T12:44:47.094Z,64.27
2018-09-10T12:45:47.037Z,64.95
2018-09-10T12:46:46.982Z,63.69
2018-09-10T12:47:46.949Z,63.79
2018-09-10T12:48:46.918Z,63.89
2018-09-10T12:49:46.887Z,63.49
2018-09-10T12:50:46.857Z,62.82
2018-09-10T12:51:46.835Z,64.27
2018-09-10T12:52:46.804Z,65.43
2018-09-10T12:53:46.779Z,64.47
2018-09-10T12:54:46.748Z,64.85
2018-09-10T12:55:46.716Z,64.85
2018-09-10T12:56:46.687Z,64.79
2018-09-10T12:57:46.652Z,65.17
2018-09-10T12:58:46.677Z,64.20
2018-09-10T12:59:46.598Z,63.72
2018-09-10T13:00:46.577Z,62.98
2018-09-10T13:01:46.541Z,63.17
2018-09-10T13:02:46.512Z,63.43
2018-09-10T13:03:46.485Z,64.30
2018-09-10T13:04:46.455Z,64.20
2018-09-10T13:05:46.426Z,64.11
2018-09-10T13:06:46.400Z,64.20
2018-09-10T13:07:46.369Z,64.50
2018-09-10T13:08:46.338Z,62.95
2018-09-10T13:09:46.317Z,62.66
2018-09-10T13:10:46.337Z,61.98
2018-09-10T13:11:46.251Z,61.59
2018-09-10T13:12:46.223Z,62.37
2018-09-10T13:13:46.200Z,63.53
2018-09-10T13:14:46.167Z,62.75
2018-09-10T13:15:46.138Z,62.07
2018-09-10T13:16:46.106Z,62.17
2018-09-10T13:17:46.075Z,62.43
2018-09-10T13:18:46.051Z,62.53